This is the latest recevied weather packets stored in our database for station/object OE-11344. If no packets are shown the sender has not sent any weather packets the latest 10 day(s).
| Time | Temp. | Humidity | Pressure | Rain* | Wind** | Luminosity | Snow |
|---|---|---|---|---|---|---|---|
| 1787878512 | 22.78° C | 38% | 854 hPa | 0 mm | - | 0 W/m² | - |
| 1787877684 | 22.78° C | 38% | 853.9 hPa | 0 mm | - | 0 W/m² | - |
| 1787877312 | 22.78° C | 36% | 854 hPa | 0 mm | - | 0 W/m² | - |
| 1787876712 | 23.33° C | 35% | 853.9 hPa | 0 mm | - | 0 W/m² | - |
| 1787875884 | 23.33° C | 36% | 853.9 hPa | 0 mm | - | 0 W/m² | - |
| 1787875511 | 23.33° C | 34% | 853.8 hPa | 0 mm | - | 0 W/m² | - |
| 1787874912 | 22.78° C | 36% | 853.8 hPa | 0 mm | - | 0 W/m² | - |
| 1787874084 | 22.78° C | 35% | 853.9 hPa | 0 mm | - | 0 W/m² | - |
| 1787873712 | 22.78° C | 36% | 854 hPa | 0 mm | - | 0 W/m² | - |
| 1787873111 | 23.33° C | 34% | 854.2 hPa | 0 mm | - | 0 W/m² | - |
| 1787872512 | 23.33° C | 35% | 854.2 hPa | 0 mm | - | 0 W/m² | - |
| 1787871911 | 23.89° C | 33% | 854.4 hPa | 0 mm | - | 0 W/m² | - |
| 1787870485 | 22.22° C | 42% | 854.7 hPa | 0 mm | - | 0 W/m² | - |
| 1787870112 | 22.22° C | 41% | 854.9 hPa | 0 mm | - | 0 W/m² | - |
| 1787869512 | 22.78° C | 37% | 854.7 hPa | 0 mm | - | 0 W/m² | - |
| 1787868685 | 22.78° C | 37% | 854.7 hPa | 0 mm | - | 0 W/m² | - |
| 1787868311 | 22.22° C | 40% | 854.7 hPa | 0 mm | - | 0 W/m² | - |
| 1787867712 | 22.78° C | 39% | 854.7 hPa | 0 mm | - | 0 W/m² | - |
| 1787866885 | 22.22° C | 44% | 854.7 hPa | 0 mm | - | 0 W/m² | - |
| 1787866511 | 22.78° C | 41% | 854.9 hPa | 0 mm | - | 0 W/m² | - |
| 1787865912 | 22.22° C | 44% | 854.9 hPa | 0 mm | - | 0 W/m² | - |
| 1787865085 | 22.22° C | 46% | 854.9 hPa | 0 mm | - | 0 W/m² | - |
| 1787864711 | 22.22° C | 46% | 855 hPa | 0 mm | - | 0 W/m² | - |
| 1787864111 | 22.78° C | 42% | 854.9 hPa | 0 mm | - | 0 W/m² | - |
| 1787863285 | 22.78° C | 42% | 854.6 hPa | 0 mm | - | 0 W/m² | - |
* Rain latest hour (hover to see other rain measurements)
** Current wind speed in m/s (hover to see current wind gust speed)